Time;durP1;ratioP1;P1;durP2;ratioP2;P2;SDS_P1;SDS_P2;PMS_P1;PMS_P2;Temp;Humidity;BMP_temperature;BMP_pressure;BME280_temperature;BME280_humidity;BME280_pressure;Samples;Min_cycle;Max_cycle;Signal;HPM_P1;HPM_P2
2023/02/13 00:00:41;;;;;;;5.87;5.57;;;1.40;89.40;;;;;;6092482;23;20440;-76
2023/02/13 00:03:08;;;;;;;5.35;5.05;;;1.40;89.30;;;;;;6093285;23;20369;-75
2023/02/13 00:05:35;;;;;;;5.30;5.10;;;1.50;88.50;;;;;;6118738;23;20409;-76
2023/02/13 00:08:02;;;;;;;5.28;4.97;;;1.40;87.90;;;;;;6092814;23;20384;-77
2023/02/13 00:10:29;;;;;;;5.10;4.80;;;1.40;89.00;;;;;;6093565;23;20365;-77
2023/02/13 00:12:56;;;;;;;4.93;4.72;;;1.30;89.40;;;;;;6092188;23;20435;-77
2023/02/13 00:15:23;;;;;;;5.20;4.93;;;1.30;89.30;;;;;;6093753;23;20425;-77
2023/02/13 00:17:50;;;;;;;4.80;4.60;;;1.20;89.70;;;;;;6117682;23;20417;-77
2023/02/13 00:20:17;;;;;;;4.55;4.35;;;1.20;89.20;;;;;;6094366;23;20365;-77
2023/02/13 00:22:43;;;;;;;4.55;4.35;;;1.20;89.10;;;;;;6093032;23;20377;-77
2023/02/13 00:25:11;;;;;;;4.80;4.60;;;1.20;88.70;;;;;;6119200;23;20361;-77
2023/02/13 00:27:38;;;;;;;5.05;4.78;;;1.10;89.70;;;;;;6093705;23;20373;-77
2023/02/13 00:30:06;;;;;;;5.20;5.00;;;1.00;92.00;;;;;;6092738;23;20368;-76
2023/02/13 00:32:33;;;;;;;4.40;4.20;;;0.90;93.80;;;;;;6093630;23;20385;-77
2023/02/13 00:35:00;;;;;;;4.63;4.43;;;0.90;93.00;;;;;;6092828;23;20377;-77
2023/02/13 00:37:27;;;;;;;4.65;4.35;;;0.90;92.80;;;;;;6093190;23;20382;-77
2023/02/13 00:39:55;;;;;;;5.00;4.70;;;0.90;92.50;;;;;;6092216;23;20385;-75
2023/02/13 00:42:25;;;;;;;4.40;4.20;;;0.90;92.40;;;;;;6118392;23;20419;-77
2023/02/13 00:44:53;;;;;;;4.67;4.47;;;0.80;92.60;;;;;;6092769;23;20520;-77
2023/02/13 00:47:20;;;;;;;4.60;4.40;;;0.80;92.60;;;;;;6118574;23;20385;-77
2023/02/13 00:49:47;;;;;;;4.73;4.50;;;0.80;93.00;;;;;;6092409;23;20385;-77
2023/02/13 00:52:14;;;;;;;4.78;4.57;;;0.80;93.00;;;;;;6118546;23;20361;-77
2023/02/13 00:54:41;;;;;;;4.40;4.20;;;0.80;94.00;;;;;;6094263;23;20393;-77
2023/02/13 00:57:08;;;;;;;4.68;4.47;;;0.80;93.90;;;;;;6093114;23;20378;-77
2023/02/13 00:59:35;;;;;;;4.35;4.15;;;0.70;95.20;;;;;;6119067;23;20385;-76
2023/02/13 01:02:02;;;;;;;4.60;4.40;;;0.70;95.80;;;;;;6095189;23;20381;-77
2023/02/13 01:04:29;;;;;;;4.18;3.97;;;0.70;96.00;;;;;;6095630;23;20424;-77
2023/02/13 01:06:56;;;;;;;4.03;3.83;;;0.70;95.60;;;;;;6094113;23;20373;-77
2023/02/13 01:09:23;;;;;;;4.03;3.83;;;0.70;95.60;;;;;;6094679;23;20389;-77
2023/02/13 01:11:50;;;;;;;3.65;3.45;;;0.80;96.80;;;;;;6095166;23;20365;-77
2023/02/13 01:14:16;;;;;;;4.00;3.80;;;1.00;97.50;;;;;;6096008;23;20361;-76
2023/02/13 01:16:43;;;;;;;3.45;3.25;;;1.30;97.60;;;;;;6121262;23;20366;-76
2023/02/13 01:19:10;;;;;;;3.70;3.58;;;1.60;96.40;;;;;;6094650;23;20397;-77
2023/02/13 01:21:37;;;;;;;3.47;3.28;;;1.90;94.90;;;;;;6095781;23;20425;-77
2023/02/13 01:24:05;;;;;;;3.53;3.33;;;2.20;93.20;;;;;;6094874;23;20353;-77
2023/02/13 01:26:32;;;;;;;3.58;3.38;;;2.40;92.00;;;;;;6096136;23;20381;-77
2023/02/13 01:28:59;;;;;;;3.63;3.42;;;2.80;90.50;;;;;;6093395;23;20369;-77
2023/02/13 01:31:26;;;;;;;3.10;2.90;;;3.20;87.10;;;;;;6095713;23;20365;-77
2023/02/13 01:33:56;;;;;;;3.17;3.08;;;3.30;84.30;;;;;;6119427;23;20722;-77
2023/02/13 01:36:24;;;;;;;2.92;2.83;;;3.50;81.90;;;;;;6096150;23;20731;-77
2023/02/13 01:38:53;;;;;;;3.10;2.97;;;3.60;79.90;;;;;;6094350;23;20423;-77
2023/02/13 01:41:21;;;;;;;3.10;3.00;;;3.70;78.00;;;;;;6095043;23;20389;-77
2023/02/13 01:43:50;;;;;;;4.10;3.90;;;3.60;76.50;;;;;;6120967;23;20377;-77
2023/02/13 01:46:41;;;;;;;3.67;3.47;;;3.50;76.40;;;;;;6093753;23;20694;-77
2023/02/13 01:49:19;;;;;;;3.28;3.17;;;3.30;77.70;;;;;;6093906;23;20382;-77
2023/02/13 01:51:50;;;;;;;2.80;2.70;;;3.10;78.10;;;;;;6119933;23;20381;-77
2023/02/13 01:54:30;;;;;;;3.15;3.03;;;3.10;80.20;;;;;;6094315;23;20373;-76
2023/02/13 01:57:05;;;;;;;2.85;2.65;;;3.20;81.50;;;;;;6094264;23;20362;-77
2023/02/13 02:00:12;;;;;;;2.97;2.88;;;3.30;80.60;;;;;;6120293;23;20365;-77
2023/02/13 02:51:36;;;;;;;3.67;3.58;;;1.60;85.00;;;;;;6061896;23;20414;-79
2023/02/13 02:57:09;;;;;;;3.97;3.78;;;1.20;87.80;;;;;;6121269;23;20447;-79
2023/02/13 03:08:10;;;;;;;3.90;3.70;;;0.40;94.20;;;;;;6092574;23;20818;-79
2023/02/13 03:13:40;;;;;;;3.90;3.70;;;0.40;94.40;;;;;;6092719;23;20747;-79
2023/02/13 03:24:57;;;;;;;4.10;3.90;;;0.40;96.00;;;;;;6092261;23;20389;-78
2023/02/13 03:30:39;;;;;;;3.70;3.50;;;0.40;94.40;;;;;;6092316;23;20387;-78
2023/02/13 03:33:25;;;;;;;3.60;3.50;;;0.40;93.80;;;;;;6067301;23;20930;-77
2023/02/13 03:39:06;;;;;;;3.85;3.65;;;0.40;94.30;;;;;;6091533;23;20726;-75
2023/02/13 03:41:44;;;;;;;3.80;3.70;;;0.40;94.50;;;;;;6066482;23;20488;-74
2023/02/13 03:44:35;;;;;;;3.47;3.37;;;0.40;94.50;;;;;;6065781;23;20432;-75
2023/02/13 03:47:04;;;;;;;3.83;3.63;;;0.30;95.30;;;;;;6046791;23;20412;-77
2023/02/13 03:52:52;;;;;;;3.58;3.38;;;0.30;94.40;;;;;;6092095;23;20385;-75
2023/02/13 04:01:33;;;;;;;3.60;3.40;;;0.20;94.20;;;;;;6086668;23;20362;-77
2023/02/13 04:04:18;;;;;;;3.95;3.75;;;0.10;94.80;;;;;;6067731;23;20373;-74
2023/02/13 04:07:00;;;;;;;3.83;3.63;;;0.10;94.70;;;;;;6091385;23;20433;-76
2023/02/13 04:09:30;;;;;;;3.90;3.72;;;0.00;96.40;;;;;;6090898;23;20427;-75
2023/02/13 04:12:09;;;;;;;3.80;3.67;;;0.00;95.80;;;;;;6092789;23;20381;-75
2023/02/13 04:15:00;;;;;;;3.42;3.33;;;0.00;95.40;;;;;;6066306;23;20908;-74
2023/02/13 04:17:34;;;;;;;3.60;3.50;;;-0.10;96.50;;;;;;6065781;23;20452;-75
2023/02/13 04:20:02;;;;;;;3.50;3.40;;;0.00;96.10;;;;;;6067405;23;20451;-75
2023/02/13 04:22:29;;;;;;;3.25;3.15;;;-0.10;96.10;;;;;;6090586;23;20711;-75
2023/02/13 04:24:56;;;;;;;3.42;3.33;;;-0.10;97.00;;;;;;6067472;23;20384;-75
2023/02/13 04:27:26;;;;;;;3.80;3.70;;;-0.20;97.50;;;;;;6065984;23;20408;-75
2023/02/13 04:29:53;;;;;;;3.88;3.67;;;-0.30;98.60;;;;;;6092447;23;20797;-75
2023/02/13 04:32:19;;;;;;;4.03;3.83;;;-0.40;98.60;;;;;;6067022;23;20845;-75
2023/02/13 04:34:46;;;;;;;3.60;3.40;;;-0.50;99.80;;;;;;6092591;23;20424;-74
2023/02/13 04:37:13;;;;;;;3.70;3.60;;;-0.50;99.90;;;;;;6068892;23;20378;-75
2023/02/13 04:39:40;;;;;;;3.45;3.35;;;-0.50;99.90;;;;;;6068285;23;20451;-74
2023/02/13 04:42:07;;;;;;;3.65;3.55;;;-0.60;99.90;;;;;;6069177;23;20691;-74
2023/02/13 04:44:34;;;;;;;3.53;3.40;;;-0.60;99.90;;;;;;6067986;23;20985;-75
2023/02/13 04:47:01;;;;;;;3.40;3.30;;;-0.60;99.90;;;;;;6068878;23;20381;-75
2023/02/13 04:49:27;;;;;;;4.07;3.88;;;-0.60;99.90;;;;;;6067682;23;20413;-75
2023/02/13 04:51:54;;;;;;;3.88;3.67;;;-0.60;99.90;;;;;;6093919;23;20414;-75
2023/02/13 04:54:21;;;;;;;3.78;3.60;;;-0.60;99.90;;;;;;6069067;23;20385;-75
2023/02/13 04:56:48;;;;;;;3.55;3.35;;;-0.60;99.90;;;;;;6067822;23;20861;-75
2023/02/13 04:59:15;;;;;;;3.55;3.38;;;-0.60;99.90;;;;;;6068822;23;20401;-75
2023/02/13 05:01:42;;;;;;;3.90;3.70;;;-0.60;99.90;;;;;;6067424;23;20420;-75
2023/02/13 05:04:10;;;;;;;3.80;3.60;;;-0.60;99.90;;;;;;6069247;23;20388;-75
2023/02/13 05:06:37;;;;;;;3.40;3.30;;;-0.60;99.90;;;;;;6067608;23;20762;-75
2023/02/13 05:09:04;;;;;;;3.38;3.28;;;-0.60;99.90;;;;;;6068852;23;20436;-75
2023/02/13 05:11:30;;;;;;;3.60;3.40;;;-0.60;99.90;;;;;;6093187;23;20408;-75
2023/02/13 05:13:57;;;;;;;3.50;3.40;;;-0.60;99.90;;;;;;6068729;23;20381;-75
2023/02/13 05:16:24;;;;;;;3.67;3.47;;;-0.70;99.90;;;;;;6069175;23;20687;-75
2023/02/13 05:18:53;;;;;;;3.40;3.30;;;-0.70;99.90;;;;;;6067491;23;20381;-75
2023/02/13 05:24:06;;;;;;;3.72;3.58;;;-0.70;99.90;;;;;;6092588;23;20386;-75
2023/02/13 05:26:33;;;;;;;3.90;3.70;;;-0.80;99.90;;;;;;6093663;23;20751;-76
2023/02/13 05:29:18;;;;;;;3.55;3.45;;;-0.90;99.90;;;;;;6067477;23;20464;-76
2023/02/13 05:31:46;;;;;;;3.53;3.42;;;-0.90;99.90;;;;;;6067835;23;20401;-76
2023/02/13 05:34:14;;;;;;;3.40;3.30;;;-1.00;99.90;;;;;;6068843;23;20699;-75
2023/02/13 05:36:40;;;;;;;3.50;3.30;;;-1.00;99.90;;;;;;6068457;23;20412;-75
2023/02/13 05:39:07;;;;;;;3.88;3.67;;;-1.00;99.90;;;;;;6067852;23;20373;-75
2023/02/13 05:41:34;;;;;;;3.42;3.33;;;-1.00;99.90;;;;;;6068459;23;20747;-75
2023/02/13 05:44:02;;;;;;;3.60;3.50;;;-1.00;99.90;;;;;;6067961;23;20377;-75
2023/02/13 05:46:29;;;;;;;3.70;3.60;;;-1.00;99.90;;;;;;6068089;23;20864;-75
2023/02/13 05:48:56;;;;;;;3.70;3.50;;;-1.10;99.90;;;;;;6067336;23;20389;-75
2023/02/13 05:51:23;;;;;;;3.65;3.45;;;-1.10;99.90;;;;;;6063259;23;20382;-76
2023/02/13 05:53:50;;;;;;;3.90;3.70;;;-1.10;99.90;;;;;;6064044;23;20547;-76
2023/02/13 05:56:17;;;;;;;3.50;3.35;;;-1.10;99.90;;;;;;6063555;23;20387;-76
2023/02/13 05:58:44;;;;;;;3.80;3.70;;;-1.10;99.90;;;;;;6063629;23;20411;-76
2023/02/13 06:01:11;;;;;;;3.70;3.50;;;-1.10;99.90;;;;;;6064419;23;20406;-76
2023/02/13 06:03:39;;;;;;;3.30;3.20;;;-1.20;99.90;;;;;;6063362;23;20489;-76
2023/02/13 06:06:06;;;;;;;3.80;3.60;;;-1.20;99.90;;;;;;6062291;23;20776;-76
2023/02/13 06:08:33;;;;;;;3.60;3.50;;;-1.20;99.90;;;;;;6064992;23;20390;-75
2023/02/13 06:11:00;;;;;;;3.53;3.42;;;-1.20;99.90;;;;;;6062402;23;20740;-76
2023/02/13 06:13:27;;;;;;;3.58;3.47;;;-1.20;99.90;;;;;;6063579;23;20375;-76
2023/02/13 06:15:54;;;;;;;3.38;3.28;;;-1.20;99.90;;;;;;6063670;23;20410;-76
2023/02/13 06:18:22;;;;;;;3.85;3.55;;;-1.20;99.90;;;;;;6063469;23;20756;-76
2023/02/13 06:20:49;;;;;;;3.50;3.40;;;-1.20;99.90;;;;;;6062650;23;20375;-75
2023/02/13 06:23:16;;;;;;;3.47;3.38;;;-1.20;99.90;;;;;;6063355;23;20367;-75
2023/02/13 06:25:43;;;;;;;3.28;3.17;;;-1.20;99.90;;;;;;6063594;23;20848;-75
2023/02/13 06:28:09;;;;;;;3.50;3.40;;;-1.20;99.90;;;;;;6064327;23;20406;-75
2023/02/13 06:30:36;;;;;;;3.43;3.33;;;-1.20;99.90;;;;;;6063240;23;20715;-75
2023/02/13 06:33:06;;;;;;;3.63;3.42;;;-1.20;99.90;;;;;;6062393;23;20391;-76
2023/02/13 06:35:33;;;;;;;3.42;3.22;;;-1.30;99.90;;;;;;6062990;23;20394;-75
2023/02/13 06:38:00;;;;;;;3.10;3.00;;;-1.40;99.90;;;;;;6062492;23;20403;-76
2023/02/13 06:40:27;;;;;;;3.42;3.33;;;-1.30;99.90;;;;;;6063111;23;20835;-75
2023/02/13 06:42:54;;;;;;;3.30;3.20;;;-1.30;99.90;;;;;;6062049;23;20446;-75
2023/02/13 06:45:21;;;;;;;3.55;3.35;;;-1.30;99.90;;;;;;6062918;23;20385;-75
2023/02/13 06:47:48;;;;;;;3.47;3.38;;;-1.40;99.90;;;;;;6062798;23;20414;-75
2023/02/13 06:50:16;;;;;;;3.33;3.22;;;-1.40;99.90;;;;;;6061130;23;20406;-75
2023/02/13 06:52:48;;;;;;;3.10;3.00;;;-1.40;99.90;;;;;;6062495;23;20848;-75
2023/02/13 06:55:16;;;;;;;3.20;3.00;;;-1.40;99.90;;;;;;6061635;23;20386;-75
2023/02/13 06:57:43;;;;;;;3.55;3.35;;;-1.40;99.90;;;;;;6062288;23;20390;-75
2023/02/13 07:00:12;;;;;;;3.65;3.38;;;-1.40;99.90;;;;;;6061942;23;20426;-75
2023/02/13 07:02:41;;;;;;;3.45;3.25;;;-1.40;99.90;;;;;;6062352;23;20436;-80
2023/02/13 07:05:08;;;;;;;6.40;6.00;;;-1.30;99.90;;;;;;6061339;23;20387;-75
2023/02/13 07:07:37;;;;;;;6.07;5.68;;;-1.20;99.90;;;;;;6062826;23;20477;-75
2023/02/13 07:10:06;;;;;;;6.55;6.05;;;-1.20;99.90;;;;;;6062000;23;20462;-75
2023/02/13 07:12:35;;;;;;;5.70;5.40;;;-1.10;99.90;;;;;;6062638;23;20383;-75
2023/02/13 07:15:03;;;;;;;6.22;5.82;;;-1.10;99.90;;;;;;6061353;23;20439;-75
2023/02/13 07:17:31;;;;;;;6.13;5.80;;;-1.00;99.90;;;;;;6063781;23;20386;-75
2023/02/13 07:19:58;;;;;;;5.75;5.35;;;-1.00;99.90;;;;;;6062687;23;20379;-76
2023/02/13 07:22:25;;;;;;;5.43;5.13;;;-0.90;99.90;;;;;;6063554;23;20454;-74
2023/02/13 07:24:52;;;;;;;5.30;5.00;;;-0.90;99.90;;;;;;6061976;23;20414;-75
2023/02/13 07:27:18;;;;;;;4.10;3.90;;;-0.90;99.90;;;;;;6063098;23;20375;-75
2023/02/13 07:29:45;;;;;;;4.20;4.00;;;-0.80;99.90;;;;;;6061632;23;20419;-75
2023/02/13 07:32:12;;;;;;;4.23;4.03;;;-0.70;99.90;;;;;;6061012;23;20823;-75
2023/02/13 07:34:39;;;;;;;3.83;3.65;;;-0.70;99.90;;;;;;6061214;23;20383;-75
2023/02/13 07:37:27;;;;;;;3.72;3.53;;;-0.60;99.90;;;;;;6060798;23;20688;-76
2023/02/13 07:39:54;;;;;;;4.28;4.07;;;-0.50;99.90;;;;;;6062455;23;20422;-75
2023/02/13 07:42:21;;;;;;;4.10;3.90;;;-0.20;99.90;;;;;;6061952;23;20371;-75
2023/02/13 07:44:48;;;;;;;3.80;3.60;;;-0.10;99.90;;;;;;6062322;23;20453;-75
2023/02/13 07:47:15;;;;;;;3.70;3.55;;;0.20;99.90;;;;;;6063059;23;20434;-75
2023/02/13 07:49:45;;;;;;;3.50;3.30;;;0.50;99.90;;;;;;6062706;23;20404;-75
2023/02/13 07:52:12;;;;;;;3.53;3.37;;;0.80;99.90;;;;;;6078040;23;20389;-76
2023/02/13 07:54:45;;;;;;;3.58;3.47;;;1.10;99.90;;;;;;6067243;23;20750;-75
2023/02/13 07:57:14;;;;;;;3.75;3.55;;;1.40;99.90;;;;;;6092104;23;20525;-75
2023/02/13 07:59:41;;;;;;;3.40;3.20;;;1.60;99.90;;;;;;6066803;23;20460;-76
2023/02/13 08:02:12;;;;;;;3.60;3.50;;;1.80;99.90;;;;;;6066736;23;20452;-75
2023/02/13 08:04:40;;;;;;;3.70;3.50;;;2.00;99.90;;;;;;6066031;23;20432;-75
2023/02/13 08:07:07;;;;;;;3.28;3.17;;;2.30;99.90;;;;;;6065374;23;20443;-75
2023/02/13 08:12:19;;;;;;;3.55;3.35;;;2.80;99.90;;;;;;6090374;23;20476;-74
2023/02/13 08:14:46;;;;;;;3.63;3.33;;;3.10;99.20;;;;;;6067609;23;20691;-74
2023/02/13 08:17:13;;;;;;;3.63;3.40;;;3.50;97.80;;;;;;6088472;23;20706;-75
2023/02/13 08:19:40;;;;;;;3.67;3.37;;;3.80;95.40;;;;;;6066838;23;20759;-75
2023/02/13 08:22:08;;;;;;;4.10;3.42;;;4.20;94.80;;;;;;6065781;23;20388;-75
2023/02/13 08:24:34;;;;;;;3.55;3.17;;;4.30;92.40;;;;;;6066722;23;20381;-74
2023/02/13 08:27:01;;;;;;;3.40;3.20;;;4.50;91.20;;;;;;6092019;23;20378;-76
2023/02/13 08:29:28;;;;;;;3.72;3.53;;;4.80;91.20;;;;;;6065513;23;20767;-75
2023/02/13 08:31:55;;;;;;;3.35;3.15;;;4.90;90.70;;;;;;6066300;23;20391;-74
2023/02/13 08:34:22;;;;;;;2.60;2.50;;;5.10;90.00;;;;;;6065490;23;20379;-75
2023/02/13 08:36:49;;;;;;;4.80;3.08;;;5.40;88.70;;;;;;6066139;23;20381;-74
2023/02/13 08:39:15;;;;;;;3.05;2.85;;;5.50;83.40;;;;;;6064577;23;20373;-74
2023/02/13 08:41:42;;;;;;;2.15;2.05;;;5.70;81.50;;;;;;6065941;23;20388;-75
2023/02/13 08:44:10;;;;;;;2.60;2.50;;;6.10;76.50;;;;;;6064488;23;20562;-76
2023/02/13 08:46:37;;;;;;;2.13;2.03;;;6.40;77.40;;;;;;6091325;23;20369;-75
2023/02/13 08:49:04;;;;;;;2.70;2.60;;;6.60;74.90;;;;;;6066620;23;20385;-75
2023/02/13 08:51:31;;;;;;;2.30;2.20;;;6.80;74.60;;;;;;6058183;23;20368;-75
2023/02/13 08:53:58;;;;;;;2.97;2.78;;;7.10;73.00;;;;;;6060403;23;20387;-74
2023/02/13 08:56:25;;;;;;;2.42;2.33;;;7.20;71.70;;;;;;6061539;23;20450;-75
2023/02/13 08:58:53;;;;;;;2.30;2.20;;;7.40;71.00;;;;;;6060608;23;20860;-75
2023/02/13 09:01:20;;;;;;;2.20;2.00;;;7.60;68.90;;;;;;6060586;23;20421;-75
2023/02/13 09:03:46;;;;;;;2.45;2.35;;;7.80;67.80;;;;;;6061419;23;20689;-74
2023/02/13 09:06:13;;;;;;;2.17;2.08;;;7.90;64.60;;;;;;6060054;23;20376;-74
2023/02/13 09:08:40;;;;;;;2.42;2.33;;;8.10;65.10;;;;;;6061632;23;20380;-76
2023/02/13 09:11:09;;;;;;;2.17;2.08;;;8.10;62.60;;;;;;6062021;23;20518;-74
2023/02/13 09:13:36;;;;;;;2.00;1.90;;;8.20;62.30;;;;;;6062739;23;20386;-75
2023/02/13 09:16:05;;;;;;;2.00;1.90;;;8.30;60.80;;;;;;6061798;23;20681;-74
2023/02/13 09:18:32;;;;;;;2.40;2.30;;;8.40;61.30;;;;;;6060977;23;20824;-77
2023/02/13 09:21:00;;;;;;;1.92;1.83;;;8.50;60.30;;;;;;6062570;23;20379;-75
2023/02/13 09:23:31;;;;;;;2.20;2.00;;;8.70;58.70;;;;;;6063043;23;20382;-75
2023/02/13 09:26:01;;;;;;;2.05;1.95;;;8.80;58.30;;;;;;6063922;23;20379;-74
2023/02/13 09:28:30;;;;;;;2.08;1.98;;;8.90;57.70;;;;;;6064014;23;20379;-74
2023/02/13 09:30:57;;;;;;;2.20;2.05;;;9.00;57.30;;;;;;6063899;23;20387;-75
2023/02/13 09:33:25;;;;;;;2.00;1.90;;;9.10;57.30;;;;;;6062340;23;20379;-75
2023/02/13 09:35:52;;;;;;;1.70;1.63;;;9.20;56.40;;;;;;6063911;23;20399;-75
2023/02/13 09:38:19;;;;;;;3.00;2.90;;;9.30;56.00;;;;;;6062573;23;20395;-75
2023/02/13 09:40:56;;;;;;;3.33;3.23;;;9.40;55.70;;;;;;6064054;23;20407;-75
2023/02/13 09:43:49;;;;;;;2.85;2.75;;;9.30;56.10;;;;;;6063797;23;20395;-75
2023/02/13 09:46:24;;;;;;;2.80;2.70;;;9.10;55.20;;;;;;6062526;23;20719;-75
2023/02/13 09:48:54;;;;;;;2.90;2.80;;;9.30;56.20;;;;;;6064422;23;20743;-76
2023/02/13 09:51:24;;;;;;;2.80;2.70;;;9.50;55.60;;;;;;6069244;23;20699;-75
2023/02/13 09:53:59;;;;;;;3.22;3.03;;;9.50;54.60;;;;;;6067554;23;20838;-77
2023/02/13 09:57:04;;;;;;;3.08;2.97;;;9.60;53.90;;;;;;6066809;23;20448;-75
2023/02/13 09:59:45;;;;;;;3.33;3.22;;;9.60;54.50;;;;;;6066988;23;20381;-74
2023/02/13 10:02:30;;;;;;;3.70;3.50;;;9.70;54.30;;;;;;6067866;23;20474;-75
2023/02/13 10:05:25;;;;;;;3.73;3.53;;;9.80;53.70;;;;;;6067667;23;20719;-75
2023/02/13 10:08:23;;;;;;;3.63;3.42;;;10.00;53.00;;;;;;6065916;23;20432;-75
2023/02/13 10:11:14;;;;;;;3.23;3.03;;;10.20;52.90;;;;;;6064439;23;20522;-76
2023/02/13 10:13:47;;;;;;;3.13;3.00;;;10.30;52.00;;;;;;6063818;23;20382;-75
2023/02/13 10:16:21;;;;;;;3.22;3.13;;;10.40;51.70;;;;;;6065233;23;20381;-75
2023/02/13 10:18:58;;;;;;;3.50;3.30;;;10.50;51.80;;;;;;6066056;23;20894;-75
2023/02/13 10:21:41;;;;;;;3.78;3.58;;;10.60;51.80;;;;;;6067151;23;20405;-75
2023/02/13 10:24:18;;;;;;;4.00;3.80;;;10.50;50.30;;;;;;6063336;23;20456;-75
2023/02/13 10:26:46;;;;;;;4.10;3.90;;;10.40;50.60;;;;;;6066564;23;20415;-75
2023/02/13 10:32:14;;;;;;;3.95;3.75;;;10.50;51.20;;;;;;6087042;23;20381;-75
2023/02/13 10:34:46;;;;;;;4.05;3.85;;;10.70;50.60;;;;;;6066904;23;20457;-75
2023/02/13 10:37:20;;;;;;;3.97;3.78;;;10.90;50.90;;;;;;6063256;23;20377;-76
2023/02/13 10:39:52;;;;;;;3.95;3.75;;;10.80;50.80;;;;;;6062354;23;20468;-76
2023/02/13 10:42:45;;;;;;;3.90;3.70;;;10.90;50.20;;;;;;6062500;23;20381;-76
2023/02/13 10:45:43;;;;;;;3.47;3.28;;;11.20;49.20;;;;;;6065748;23;20460;-76
2023/02/13 10:48:19;;;;;;;3.10;3.00;;;11.10;48.30;;;;;;6065517;23;20445;-75
2023/02/13 10:50:45;;;;;;;3.00;2.90;;;11.40;47.30;;;;;;6066019;23;20771;-77
2023/02/13 10:53:21;;;;;;;2.97;2.87;;;11.50;46.50;;;;;;6065577;23;20385;-75
2023/02/13 10:55:56;;;;;;;2.70;2.60;;;11.70;46.50;;;;;;6066539;23;20378;-76
2023/02/13 10:59:04;;;;;;;2.65;2.55;;;11.80;44.90;;;;;;6065805;23;20381;-75
2023/02/13 11:01:47;;;;;;;2.90;2.80;;;12.00;44.30;;;;;;6022047;23;20912;-77
2023/02/13 11:04:18;;;;;;;2.40;2.30;;;12.10;43.90;;;;;;6038889;23;20606;-78
2023/02/13 11:07:00;;;;;;;2.53;2.42;;;12.10;44.30;;;;;;6059814;23;20392;-77
2023/02/13 11:09:29;;;;;;;2.10;2.00;;;12.10;43.70;;;;;;6060184;23;20369;-76
2023/02/13 11:11:56;;;;;;;2.22;2.10;;;12.10;42.10;;;;;;6063020;23;20378;-77
2023/02/13 11:14:25;;;;;;;2.35;2.25;;;12.20;41.60;;;;;;6057210;23;20838;-74
2023/02/13 11:16:58;;;;;;;2.80;2.70;;;12.40;42.00;;;;;;6064365;23;20377;-75
2023/02/13 11:19:50;;;;;;;2.75;2.65;;;12.00;41.50;;;;;;6066569;23;20381;-75
2023/02/13 11:22:31;;;;;;;3.10;2.90;;;11.90;43.00;;;;;;6058822;23;20373;-76
2023/02/13 11:25:24;;;;;;;3.08;2.97;;;12.20;42.50;;;;;;6092123;23;20787;-75
2023/02/13 11:28:15;;;;;;;3.03;2.83;;;12.40;43.40;;;;;;6066322;23;20389;-74
2023/02/13 11:30:42;;;;;;;2.97;2.88;;;12.60;42.90;;;;;;6090249;23;20460;-75
2023/02/13 11:33:23;;;;;;;3.42;3.22;;;12.50;42.50;;;;;;6089446;23;20370;-75
2023/02/13 11:36:07;;;;;;;3.25;3.05;;;12.70;44.50;;;;;;6091417;23;20377;-75
2023/02/13 11:38:34;;;;;;;3.20;3.10;;;12.60;42.60;;;;;;6066189;23;20398;-74
2023/02/13 11:41:17;;;;;;;3.22;3.10;;;12.30;43.40;;;;;;6067138;23;20404;-75
2023/02/13 11:43:59;;;;;;;3.72;3.53;;;12.40;43.40;;;;;;6065933;23;20374;-75
2023/02/13 11:46:51;;;;;;;3.08;2.97;;;12.40;42.20;;;;;;6066898;23;20382;-74
2023/02/13 11:49:31;;;;;;;3.58;3.38;;;12.70;42.60;;;;;;6081233;23;20432;-74
2023/02/13 11:52:01;;;;;;;3.55;3.40;;;12.90;42.90;;;;;;6060277;23;20407;-75
2023/02/13 11:54:41;;;;;;;3.80;3.60;;;12.90;41.50;;;;;;6063540;23;20446;-75
2023/02/13 11:57:21;;;;;;;3.58;3.38;;;12.90;42.10;;;;;;6061239;23;20430;-75
2023/02/13 11:59:51;;;;;;;3.45;3.25;;;13.00;42.80;;;;;;6061848;23;20391;-74
2023/02/13 12:02:29;;;;;;;3.42;3.33;;;13.30;42.00;;;;;;6061332;23;20367;-75
2023/02/13 12:05:35;;;;;;;4.07;3.88;;;13.50;41.90;;;;;;6061013;23;20411;-75
2023/02/13 12:08:01;;;;;;;3.57;3.37;;;13.60;40.80;;;;;;6060720;23;20378;-75
2023/02/13 12:10:35;;;;;;;3.22;3.10;;;13.20;41.40;;;;;;6061923;23;20450;-75
2023/02/13 12:13:05;;;;;;;3.35;3.15;;;13.30;40.20;;;;;;6061006;23;20434;-78
2023/02/13 12:15:34;;;;;;;3.28;3.10;;;13.50;40.70;;;;;;6061580;23;20387;-75
2023/02/13 12:18:09;;;;;;;3.10;2.90;;;13.40;40.20;;;;;;6061019;23;20403;-75
2023/02/13 12:20:43;;;;;;;3.22;3.13;;;13.30;40.30;;;;;;6061491;23;20382;-75
2023/02/13 12:23:34;;;;;;;3.47;3.28;;;13.60;40.90;;;;;;6060721;23;20740;-75
2023/02/13 12:26:20;;;;;;;3.22;3.13;;;13.90;39.40;;;;;;6061190;23;20975;-75
2023/02/13 12:28:59;;;;;;;3.50;3.30;;;13.90;39.90;;;;;;6061831;23;20391;-75
2023/02/13 12:31:53;;;;;;;2.95;2.85;;;14.10;39.60;;;;;;6061081;23;20387;-74
2023/02/13 12:34:39;;;;;;;3.00;2.90;;;14.40;39.70;;;;;;6062968;23;20383;-76
2023/02/13 12:37:24;;;;;;;3.15;2.95;;;14.00;39.50;;;;;;6060889;23;20454;-73
2023/02/13 12:40:14;;;;;;;3.10;3.00;;;14.40;39.30;;;;;;6061799;23;20689;-74
2023/02/13 12:43:00;;;;;;;3.25;3.15;;;14.30;38.40;;;;;;6062157;23;20408;-75
2023/02/13 12:45:45;;;;;;;2.92;2.83;;;14.20;39.70;;;;;;6061202;23;20693;-75
2023/02/13 12:48:14;;;;;;;3.20;3.10;;;14.10;38.70;;;;;;6062640;23;20375;-76
2023/02/13 12:51:01;;;;;;;3.15;3.00;;;14.10;39.30;;;;;;6061019;23;20410;-75
2023/02/13 12:53:43;;;;;;;3.90;3.70;;;14.40;39.10;;;;;;6061221;23;20387;-75
2023/02/13 12:56:17;;;;;;;3.30;3.17;;;14.30;38.70;;;;;;6063228;23;20375;-74
2023/02/13 12:59:03;;;;;;;3.30;3.20;;;14.40;38.90;;;;;;6063300;23;20373;-74
2023/02/13 13:01:58;;;;;;;3.08;2.97;;;14.20;37.80;;;;;;6062118;23;20438;-75
2023/02/13 13:04:50;;;;;;;3.30;3.10;;;14.40;38.70;;;;;;6061905;23;20394;-75
2023/02/13 13:07:17;;;;;;;3.10;3.00;;;14.40;38.10;;;;;;6062271;23;20375;-76
2023/02/13 13:10:04;;;;;;;3.40;3.20;;;14.00;38.50;;;;;;6061956;23;20371;-75
2023/02/13 13:12:59;;;;;;;3.27;3.07;;;13.70;38.90;;;;;;6018701;23;20391;-75
2023/02/13 13:15:45;;;;;;;3.03;2.92;;;14.30;39.80;;;;;;6051217;23;20387;-75
2023/02/13 13:18:30;;;;;;;3.45;3.35;;;14.60;37.90;;;;;;6062691;23;20391;-76
2023/02/13 13:21:20;;;;;;;3.63;3.45;;;14.40;38.10;;;;;;6062312;23;20766;-75
2023/02/13 13:23:52;;;;;;;3.57;3.37;;;14.30;39.00;;;;;;6062533;23;20391;-75
2023/02/13 13:26:39;;;;;;;3.30;3.20;;;14.60;38.10;;;;;;6064070;23;20760;-75
2023/02/13 13:29:13;;;;;;;3.65;3.45;;;14.90;37.80;;;;;;6063069;23;20375;-76
2023/02/13 13:31:42;;;;;;;3.25;3.15;;;14.80;39.40;;;;;;6065141;23;20414;-75
2023/02/13 13:34:18;;;;;;;3.63;3.42;;;14.80;38.10;;;;;;6063158;23;20749;-76
2023/02/13 13:36:52;;;;;;;3.33;3.22;;;14.40;38.10;;;;;;6063414;23;20388;-76
2023/02/13 13:39:34;;;;;;;4.07;3.88;;;14.00;39.10;;;;;;6062904;23;20383;-76
2023/02/13 13:42:13;;;;;;;3.25;3.15;;;14.00;39.60;;;;;;6062593;23;20387;-75
2023/02/13 13:45:00;;;;;;;3.05;2.95;;;13.90;40.00;;;;;;6063428;23;20867;-75
2023/02/13 13:47:38;;;;;;;3.30;3.20;;;14.20;39.60;;;;;;6062701;23;20910;-75
2023/02/13 13:50:27;;;;;;;3.20;3.10;;;14.50;40.10;;;;;;6062734;23;20399;-75
2023/02/13 13:53:21;;;;;;;3.33;3.15;;;14.90;38.90;;;;;;6063407;23;20371;-76
2023/02/13 13:55:48;;;;;;;3.20;3.10;;;15.20;38.20;;;;;;6062953;23;20387;-75
2023/02/13 13:58:43;;;;;;;3.60;3.40;;;15.20;37.40;;;;;;6063097;23;20383;-76
2023/02/13 14:01:29;;;;;;;3.63;3.38;;;14.60;38.00;;;;;;6059030;23;20375;-77
2023/02/13 14:03:56;;;;;;;3.63;3.42;;;14.30;38.10;;;;;;6064369;23;20382;-75
2023/02/13 14:06:46;;;;;;;3.60;3.40;;;14.20;39.00;;;;;;6063100;23;20431;-75
2023/02/13 14:09:27;;;;;;;3.33;3.22;;;14.40;39.10;;;;;;6048567;23;20386;-75
2023/02/13 14:11:55;;;;;;;3.03;2.92;;;14.70;38.90;;;;;;6062979;23;20442;-75
2023/02/13 14:14:31;;;;;;;2.88;2.78;;;14.60;37.80;;;;;;6061795;23;20379;-75
2023/02/13 14:17:03;;;;;;;3.00;2.90;;;14.60;38.30;;;;;;6064032;23;20438;-75
2023/02/13 14:19:36;;;;;;;2.72;2.63;;;14.60;38.70;;;;;;6063575;23;20719;-75
2023/02/13 14:22:18;;;;;;;3.03;2.92;;;14.30;38.00;;;;;;6062228;23;20430;-75
2023/02/13 14:24:54;;;;;;;2.83;2.73;;;14.50;39.10;;;;;;6064876;23;20471;-75
2023/02/13 14:27:30;;;;;;;3.35;3.20;;;14.20;38.70;;;;;;6062041;23;20387;-76
2023/02/13 14:29:59;;;;;;;3.15;3.05;;;14.00;39.40;;;;;;6062296;23;20382;-74
2023/02/13 14:32:37;;;;;;;3.38;3.17;;;14.10;39.60;;;;;;6061776;23;20773;-75
2023/02/13 14:35:21;;;;;;;3.23;3.13;;;14.30;39.10;;;;;;6062419;23;20764;-74
2023/02/13 14:37:51;;;;;;;3.30;3.10;;;14.30;38.80;;;;;;6062941;23;20391;-74
2023/02/13 14:40:18;;;;;;;3.00;2.80;;;14.20;38.70;;;;;;6063778;23;20378;-74
2023/02/13 14:42:50;;;;;;;3.03;2.83;;;14.10;39.90;;;;;;6062724;23;20430;-75
2023/02/13 14:45:22;;;;;;;2.80;2.70;;;14.00;39.00;;;;;;6060764;23;20764;-75
2023/02/13 14:47:55;;;;;;;2.92;2.72;;;13.90;39.20;;;;;;6061712;23;20438;-75
2023/02/13 14:50:44;;;;;;;2.63;2.53;;;14.00;39.00;;;;;;6060028;23;20453;-74
2023/02/13 14:53:27;;;;;;;2.88;2.70;;;14.00;39.00;;;;;;6059714;23;20761;-74
2023/02/13 14:56:13;;;;;;;2.70;2.60;;;14.20;39.20;;;;;;6062655;23;20935;-76